createdAt,value
2018-09-19T00:00:25.041Z,99.99
2018-09-19T00:01:56.615Z,99.99
2018-09-19T00:04:59.860Z,99.99
2018-09-19T00:06:31.345Z,99.99
2018-09-19T00:08:02.906Z,99.99
2018-09-19T00:09:34.486Z,99.99
2018-09-19T00:11:06.152Z,99.99
2018-09-19T00:12:37.625Z,99.99
2018-09-19T00:14:09.206Z,99.99
2018-09-19T00:17:12.346Z,99.99
2018-09-19T00:18:43.917Z,99.99
2018-09-19T00:20:15.580Z,99.99
2018-09-19T00:21:47.393Z,99.99
2018-09-19T00:23:18.636Z,99.99
2018-09-19T00:24:50.213Z,99.99
2018-09-19T00:26:21.784Z,99.99
2018-09-19T00:27:53.356Z,99.99
2018-09-19T00:29:25.832Z,99.99
2018-09-19T00:30:57.033Z,99.99
2018-09-19T00:32:28.076Z,99.99
2018-09-19T00:33:59.651Z,99.99
2018-09-19T00:35:31.321Z,99.99
2018-09-19T00:37:02.797Z,99.99
2018-09-19T00:38:34.366Z,99.99
2018-09-19T00:40:05.942Z,99.99
2018-09-19T00:41:37.513Z,99.99
2018-09-19T00:43:09.089Z,99.99
2018-09-19T00:44:40.658Z,99.99
2018-09-19T00:46:12.232Z,99.99
2018-09-19T00:47:44.210Z,99.99
2018-09-19T00:49:15.391Z,99.99
2018-09-19T00:50:46.950Z,99.99
2018-09-19T00:52:18.524Z,99.99
2018-09-19T00:53:50.096Z,99.99
2018-09-19T00:55:21.674Z,99.99
2018-09-19T00:56:53.448Z,99.99
2018-09-19T00:58:24.822Z,99.99
2018-09-19T00:59:56.389Z,99.99
2018-09-19T01:01:27.964Z,99.99
2018-09-19T01:02:59.542Z,99.99
2018-09-19T01:06:02.931Z,99.99
2018-09-19T01:07:34.256Z,99.99
2018-09-19T01:09:05.825Z,99.99
2018-09-19T01:10:37.398Z,99.99
2018-09-19T01:12:09.272Z,99.99
2018-09-19T01:15:12.116Z,99.99
2018-09-19T01:16:43.690Z,99.99
2018-09-19T01:18:15.263Z,99.99
2018-09-19T01:19:47.353Z,99.99
2018-09-19T01:21:18.408Z,99.99
2018-09-19T01:22:49.981Z,99.99
2018-09-19T01:24:21.653Z,99.99
2018-09-19T01:25:53.128Z,99.99
2018-09-19T01:27:24.698Z,99.99
2018-09-19T01:28:56.272Z,99.99
2018-09-19T01:30:27.845Z,99.99
2018-09-19T01:31:59.417Z,99.99
2018-09-19T01:33:30.990Z,99.99
2018-09-19T01:35:02.562Z,99.99
2018-09-19T01:36:34.135Z,99.99
2018-09-19T01:38:05.708Z,99.99
2018-09-19T01:39:37.282Z,99.99
2018-09-19T01:41:08.853Z,99.99
2018-09-19T01:42:40.526Z,99.99
2018-09-19T01:44:11.998Z,99.99
2018-09-19T01:45:43.575Z,99.99
2018-09-19T01:47:15.144Z,99.99
2018-09-19T01:48:46.718Z,99.99
2018-09-19T01:50:18.292Z,99.99
2018-09-19T01:51:49.864Z,99.99
2018-09-19T01:53:21.465Z,99.99
2018-09-19T01:54:53.014Z,99.99
2018-09-19T01:56:24.580Z,99.99
2018-09-19T01:57:56.156Z,99.99
2018-09-19T01:59:27.726Z,99.99
2018-09-19T02:00:59.418Z,99.99
2018-09-19T02:02:30.871Z,99.99
2018-09-19T02:04:02.448Z,99.99
2018-09-19T02:05:34.023Z,99.99
2018-09-19T02:07:05.755Z,99.99
2018-09-19T02:08:37.165Z,99.99
2018-09-19T02:10:08.735Z,99.99
2018-09-19T02:11:40.315Z,99.99
2018-09-19T02:13:11.880Z,99.99
2018-09-19T02:14:43.472Z,99.99
2018-09-19T02:16:15.027Z,99.99
2018-09-19T02:17:46.598Z,99.99
2018-09-19T02:19:18.273Z,99.99
2018-09-19T02:20:49.744Z,99.99
2018-09-19T02:22:21.332Z,99.99
2018-09-19T02:23:52.890Z,99.99
2018-09-19T02:25:24.467Z,99.99
2018-09-19T02:26:56.546Z,99.99
2018-09-19T02:28:27.652Z,99.99
2018-09-19T02:29:59.188Z,99.99
2018-09-19T02:31:30.751Z,99.99
2018-09-19T02:33:02.335Z,99.99
2018-09-19T02:34:33.895Z,99.99
2018-09-19T02:36:05.487Z,99.99
2018-09-19T02:37:37.249Z,99.99
2018-09-19T02:39:08.616Z,99.99
2018-09-19T02:40:40.188Z,99.99
2018-09-19T02:42:11.797Z,99.99
2018-09-19T02:43:43.871Z,99.99
2018-09-19T02:45:14.905Z,99.99
2018-09-19T02:46:46.478Z,99.99
2018-09-19T02:48:18.049Z,99.99
2018-09-19T02:49:49.625Z,99.99
2018-09-19T02:51:21.210Z,99.99
2018-09-19T02:52:53.070Z,99.99
2018-09-19T02:54:24.353Z,99.99
2018-09-19T02:55:56.310Z,99.99
2018-09-19T02:57:27.482Z,99.99
2018-09-19T02:58:59.055Z,99.99
2018-09-19T03:00:30.626Z,99.99
2018-09-19T03:02:02.203Z,99.99
2018-09-19T03:03:33.833Z,99.99
2018-09-19T03:05:05.345Z,99.99
2018-09-19T03:06:36.927Z,99.99
2018-09-19T03:08:08.590Z,99.99
2018-09-19T03:11:11.634Z,99.99
2018-09-19T03:12:43.208Z,99.99
2018-09-19T03:14:15.237Z,99.99
2018-09-19T03:15:46.653Z,99.99
2018-09-19T03:17:18.028Z,99.99
2018-09-19T03:18:49.494Z,99.99
2018-09-19T03:20:21.086Z,99.99
2018-09-19T03:21:52.639Z,99.99
2018-09-19T03:23:24.210Z,99.99
2018-09-19T03:26:27.659Z,99.99
2018-09-19T03:27:58.928Z,99.99
2018-09-19T03:29:30.499Z,99.99
2018-09-19T03:31:02.069Z,99.99
2018-09-19T03:32:33.745Z,99.99
2018-09-19T03:34:05.259Z,99.99
2018-09-19T03:35:36.786Z,99.99
2018-09-19T03:37:08.360Z,99.99
2018-09-19T03:38:40.030Z,99.99
2018-09-19T03:40:11.502Z,99.99
2018-09-19T03:41:43.074Z,99.99
2018-09-19T03:43:14.650Z,99.99
2018-09-19T03:44:46.218Z,99.99
2018-09-19T03:46:17.796Z,99.99
2018-09-19T03:47:49.363Z,99.99
2018-09-19T03:49:20.932Z,99.99
2018-09-19T03:52:24.177Z,99.99
2018-09-19T03:53:55.651Z,99.99
2018-09-19T03:55:27.221Z,99.99
2018-09-19T03:56:58.794Z,99.99
2018-09-19T03:58:30.666Z,99.99
2018-09-19T04:00:01.939Z,99.99
2018-09-19T04:01:33.511Z,99.99
2018-09-19T04:03:05.083Z,99.99
2018-09-19T04:04:36.656Z,99.99
2018-09-19T04:06:08.226Z,99.99
2018-09-19T04:07:39.800Z,99.99
2018-09-19T04:09:11.375Z,99.99
2018-09-19T04:10:43.145Z,99.99
2018-09-19T04:12:14.516Z,99.99
2018-09-19T04:13:46.092Z,99.99
2018-09-19T04:15:17.668Z,99.99
2018-09-19T04:16:49.233Z,99.99
2018-09-19T04:18:20.802Z,99.99
2018-09-19T04:19:52.375Z,99.99
2018-09-19T04:21:23.946Z,99.99
2018-09-19T04:22:55.519Z,99.99
2018-09-19T04:24:27.090Z,99.99
2018-09-19T04:25:58.662Z,99.99
2018-09-19T04:27:30.234Z,99.99
2018-09-19T04:29:01.907Z,99.99
2018-09-19T04:30:33.378Z,99.99
2018-09-19T04:32:04.968Z,99.99
2018-09-19T04:33:36.577Z,99.99
2018-09-19T04:35:08.100Z,99.99
2018-09-19T04:36:39.666Z,99.99
2018-09-19T04:38:11.237Z,99.99
2018-09-19T04:39:42.814Z,99.99
2018-09-19T04:41:14.484Z,99.99
2018-09-19T04:42:45.957Z,99.99
2018-09-19T04:44:17.524Z,99.99
2018-09-19T04:45:49.105Z,99.99
2018-09-19T04:47:20.803Z,99.99
2018-09-19T04:50:23.817Z,99.99
2018-09-19T04:51:55.387Z,99.99
2018-09-19T04:53:26.957Z,99.99
2018-09-19T04:54:58.536Z,99.99
2018-09-19T04:56:30.102Z,99.99
2018-09-19T04:58:01.672Z,99.99
2018-09-19T04:59:33.543Z,99.99
2018-09-19T05:01:04.815Z,99.99
2018-09-19T05:02:36.387Z,99.99
2018-09-19T05:04:07.968Z,99.99
2018-09-19T05:05:39.643Z,99.99
2018-09-19T05:07:11.155Z,99.99
2018-09-19T05:08:42.673Z,99.99
2018-09-19T05:10:14.251Z,99.99
2018-09-19T05:11:45.919Z,99.99
2018-09-19T05:13:17.387Z,99.99
2018-09-19T05:14:48.977Z,99.99
2018-09-19T05:16:20.530Z,99.99
2018-09-19T05:17:52.103Z,99.99
2018-09-19T05:19:23.674Z,99.99
2018-09-19T05:20:55.245Z,99.99
2018-09-19T05:22:26.818Z,99.99
2018-09-19T05:23:58.489Z,99.99
2018-09-19T05:25:29.962Z,99.99
2018-09-19T05:27:01.532Z,99.99
2018-09-19T05:28:33.104Z,99.99
2018-09-19T05:30:04.976Z,99.99
2018-09-19T05:31:36.255Z,99.99
2018-09-19T05:33:07.821Z,99.99
2018-09-19T05:34:39.390Z,99.99
2018-09-19T05:36:10.963Z,99.99
2018-09-19T05:39:14.104Z,99.99
2018-09-19T05:40:45.678Z,99.99
2018-09-19T05:42:17.499Z,99.99
2018-09-19T05:43:48.819Z,99.99
2018-09-19T05:45:20.391Z,99.99
2018-09-19T05:46:51.964Z,99.99
2018-09-19T05:48:23.834Z,99.99
2018-09-19T05:49:55.111Z,99.99
2018-09-19T05:51:26.714Z,99.99
2018-09-19T05:52:58.253Z,99.99
2018-09-19T05:54:29.847Z,99.99
2018-09-19T05:56:01.393Z,99.99
2018-09-19T05:57:32.964Z,99.99
2018-09-19T05:59:04.535Z,99.99
2018-09-19T06:00:36.507Z,99.99
2018-09-19T06:02:07.677Z,99.99
2018-09-19T06:03:39.249Z,99.99
2018-09-19T06:05:10.908Z,99.99
2018-09-19T06:06:42.391Z,99.99
2018-09-19T06:08:13.962Z,99.99
2018-09-19T06:09:45.535Z,99.99
2018-09-19T06:11:17.112Z,99.99
2018-09-19T06:12:48.821Z,99.99
2018-09-19T06:14:20.248Z,99.99
2018-09-19T06:15:51.875Z,99.99
2018-09-19T06:17:23.397Z,99.99
2018-09-19T06:18:55.667Z,99.99
2018-09-19T06:20:26.534Z,99.99
2018-09-19T06:21:58.105Z,99.99
2018-09-19T06:23:29.677Z,99.99
2018-09-19T06:25:01.248Z,99.99
2018-09-19T06:26:32.818Z,99.99
2018-09-19T06:28:04.390Z,99.99
2018-09-19T06:29:35.961Z,99.99
2018-09-19T06:31:07.540Z,99.99
2018-09-19T06:32:39.105Z,99.99
2018-09-19T06:34:10.675Z,99.99
2018-09-19T06:35:42.246Z,99.99
2018-09-19T06:37:13.924Z,99.99
2018-09-19T06:38:45.389Z,99.99
2018-09-19T06:40:16.993Z,99.99
2018-09-19T06:41:48.531Z,99.99
2018-09-19T06:43:20.203Z,99.99
2018-09-19T06:44:51.676Z,99.99
2018-09-19T06:46:23.249Z,99.99
2018-09-19T06:47:54.815Z,99.99
2018-09-19T06:49:26.688Z,99.99
2018-09-19T06:50:57.958Z,99.99
2018-09-19T06:52:29.631Z,99.99
2018-09-19T06:54:01.100Z,99.99
2018-09-19T06:55:32.772Z,99.99
2018-09-19T06:57:04.243Z,99.99
2018-09-19T06:58:35.817Z,99.99
2018-09-19T07:00:07.387Z,99.99
2018-09-19T07:01:38.959Z,99.99
2018-09-19T07:04:42.103Z,99.99
2018-09-19T07:06:13.671Z,99.99
2018-09-19T07:07:45.547Z,99.99
2018-09-19T07:09:16.814Z,99.99
2018-09-19T07:10:48.387Z,99.99
2018-09-19T07:12:19.989Z,99.99
2018-09-19T07:13:51.627Z,99.99
2018-09-19T07:15:23.100Z,99.99
2018-09-19T07:16:54.671Z,99.99
2018-09-19T07:18:26.241Z,99.99
2018-09-19T07:19:58.119Z,99.99
2018-09-19T07:21:29.384Z,99.99
2018-09-19T07:23:00.960Z,99.99
2018-09-19T07:24:32.526Z,99.99
2018-09-19T07:26:04.100Z,99.99
2018-09-19T07:27:35.675Z,99.99
2018-09-19T07:29:07.243Z,99.99
2018-09-19T07:30:38.816Z,99.99
2018-09-19T07:32:10.483Z,99.99
2018-09-19T07:33:41.955Z,99.99
2018-09-19T07:35:13.526Z,99.99
2018-09-19T07:36:45.097Z,99.99
2018-09-19T07:38:16.669Z,99.99
2018-09-19T07:39:48.245Z,99.99
2018-09-19T07:41:19.819Z,99.99
2018-09-19T07:42:51.383Z,99.99
2018-09-19T07:44:23.055Z,99.99
2018-09-19T07:45:54.525Z,99.99
2018-09-19T07:47:26.096Z,99.99
2018-09-19T07:48:57.668Z,99.99
2018-09-19T07:50:29.661Z,99.99
2018-09-19T07:52:00.812Z,99.99
2018-09-19T07:53:32.386Z,99.99
2018-09-19T07:55:03.955Z,99.99
2018-09-19T07:56:35.525Z,99.99
2018-09-19T07:58:07.111Z,99.99
2018-09-19T07:59:38.667Z,99.99
2018-09-19T08:01:10.314Z,99.99
2018-09-19T08:02:41.811Z,99.99
2018-09-19T08:04:13.384Z,99.99
2018-09-19T08:05:44.954Z,99.99
2018-09-19T08:07:16.523Z,99.99
2018-09-19T08:08:48.245Z,99.99
2018-09-19T08:10:19.668Z,99.99
2018-09-19T08:11:51.258Z,99.99
2018-09-19T08:13:22.810Z,99.99
2018-09-19T08:14:54.535Z,99.99
2018-09-19T08:16:25.952Z,99.99
2018-09-19T08:17:57.523Z,99.99
2018-09-19T08:19:29.098Z,99.99
2018-09-19T08:21:00.967Z,99.99
2018-09-19T08:22:32.279Z,99.99
2018-09-19T08:24:03.810Z,99.99
2018-09-19T08:25:35.380Z,99.99
2018-09-19T08:27:07.052Z,99.99
2018-09-19T08:28:38.523Z,99.99
2018-09-19T08:30:10.098Z,99.99
2018-09-19T08:31:41.674Z,99.99
2018-09-19T08:33:13.237Z,99.99
2018-09-19T08:34:44.809Z,99.99
2018-09-19T08:36:16.427Z,99.99
2018-09-19T08:37:47.950Z,99.99
2018-09-19T08:39:19.524Z,99.99
2018-09-19T08:40:51.093Z,99.99
2018-09-19T08:42:22.666Z,99.99
2018-09-19T08:43:54.254Z,99.99
2018-09-19T08:45:26.063Z,99.99
2018-09-19T08:46:57.410Z,99.99
2018-09-19T08:48:28.950Z,99.99
2018-09-19T08:50:00.593Z,99.99
2018-09-19T08:51:32.392Z,99.99
2018-09-19T08:53:03.673Z,99.99
2018-09-19T08:54:35.236Z,99.99
2018-09-19T08:56:06.805Z,99.99
2018-09-19T08:57:38.409Z,99.99
2018-09-19T08:59:10.179Z,99.99
2018-09-19T09:00:41.837Z,99.99
2018-09-19T09:02:13.099Z,99.99
2018-09-19T09:03:45.391Z,99.99
2018-09-19T09:05:16.586Z,99.99
2018-09-19T09:08:19.914Z,99.99
2018-09-19T09:09:50.944Z,99.99
2018-09-19T09:11:22.525Z,99.99
2018-09-19T09:14:25.899Z,99.99
2018-09-19T09:15:57.344Z,99.99
2018-09-19T09:17:28.800Z,99.99
2018-09-19T09:19:00.573Z,99.99
2018-09-19T09:20:32.036Z,99.99
2018-09-19T09:22:03.943Z,99.99
2018-09-19T09:23:35.086Z,99.99
2018-09-19T09:25:06.659Z,99.99
2018-09-19T09:26:38.262Z,99.99
2018-09-19T09:28:09.804Z,99.99
2018-09-19T09:29:41.433Z,99.99
2018-09-19T09:32:44.573Z,99.99
2018-09-19T09:34:16.156Z,99.99
2018-09-19T09:35:47.701Z,99.99
2018-09-19T09:37:19.257Z,99.99
2018-09-19T09:38:50.961Z,99.99
2018-09-19T09:40:23.063Z,99.99
2018-09-19T09:41:54.012Z,99.99
2018-09-19T09:43:25.897Z,99.99
2018-09-19T09:44:57.137Z,99.99
2018-09-19T09:46:28.785Z,99.99
2018-09-19T09:48:00.417Z,99.99
2018-09-19T09:49:31.934Z,99.99
2018-09-19T09:51:03.425Z,99.99
2018-09-19T09:52:34.983Z,99.99
2018-09-19T09:54:06.595Z,99.99
2018-09-19T09:57:09.761Z,99.99
2018-09-19T09:58:41.385Z,99.99
2018-09-19T10:00:13.008Z,99.99
2018-09-19T10:03:16.017Z,99.99
2018-09-19T10:04:48.001Z,99.99
2018-09-19T10:06:19.218Z,99.99
2018-09-19T10:07:50.944Z,99.99
2018-09-19T10:09:22.325Z,99.99
2018-09-19T10:12:25.675Z,99.99
2018-09-19T10:13:57.050Z,99.99
2018-09-19T10:15:28.829Z,99.99
2018-09-19T10:17:00.206Z,99.99
2018-09-19T10:18:32.284Z,99.99
2018-09-19T10:20:03.662Z,99.99
2018-09-19T10:23:06.717Z,99.99
2018-09-19T10:24:38.091Z,99.99
2018-09-19T10:26:09.667Z,99.99
2018-09-19T10:27:41.247Z,99.99
2018-09-19T10:29:12.831Z,99.99
2018-09-19T10:30:44.439Z,99.99
2018-09-19T10:32:15.981Z,99.99
2018-09-19T10:33:48.213Z,99.99
2018-09-19T10:35:19.168Z,99.99
2018-09-19T10:38:22.399Z,99.99
2018-09-19T10:42:57.335Z,99.99
2018-09-19T10:44:28.604Z,99.99
2018-09-19T10:46:00.491Z,99.99
2018-09-19T10:47:32.212Z,99.99
2018-09-19T10:49:03.364Z,99.99
2018-09-19T10:50:34.944Z,99.99
2018-09-19T10:52:06.709Z,99.99
2018-09-19T10:53:38.118Z,99.99
2018-09-19T10:56:41.714Z,99.99
2018-09-19T10:58:12.851Z,99.99
2018-09-19T10:59:44.435Z,99.99
2018-09-19T11:01:16.214Z,99.99
2018-09-19T11:02:47.604Z,99.99
2018-09-19T11:04:19.162Z,99.99
2018-09-19T11:05:51.012Z,99.99
2018-09-19T11:07:22.350Z,99.99
2018-09-19T11:08:54.122Z,99.99
2018-09-19T11:10:25.585Z,99.99
2018-09-19T11:11:57.231Z,99.99
2018-09-19T11:13:28.926Z,99.99
2018-09-19T11:15:00.486Z,99.99
2018-09-19T11:16:31.779Z,99.99
2018-09-19T11:18:03.433Z,99.99
2018-09-19T11:19:35.278Z,99.99
2018-09-19T11:21:06.772Z,99.99
2018-09-19T11:24:09.873Z,99.99
2018-09-19T11:27:12.855Z,99.60
2018-09-19T11:30:16.402Z,97.47
2018-09-19T11:31:47.822Z,97.23
2018-09-19T11:33:19.333Z,99.07
2018-09-19T11:34:50.841Z,98.20
2018-09-19T11:37:54.257Z,99.07
2018-09-19T11:39:25.597Z,99.12
2018-09-19T11:40:57.237Z,99.07
2018-09-19T11:42:28.713Z,98.10
2018-09-19T11:44:00.433Z,98.78
2018-09-19T11:45:32.546Z,98.88
2018-09-19T11:47:04.311Z,99.65
2018-09-19T11:48:34.979Z,97.57
2018-09-19T11:50:06.558Z,96.80
2018-09-19T11:51:38.446Z,97.67
2018-09-19T11:53:09.720Z,97.03
2018-09-19T11:57:44.467Z,97.38
2018-09-19T11:59:16.051Z,95.48
2018-09-19T12:00:47.662Z,97.18
2018-09-19T12:02:19.417Z,95.43
2018-09-19T12:03:50.904Z,95.58
2018-09-19T12:05:22.429Z,96.50
2018-09-19T12:06:54.171Z,96.94
2018-09-19T12:08:25.851Z,96.55
2018-09-19T12:09:58.279Z,95.48
2018-09-19T12:11:28.709Z,94.90
2018-09-19T12:13:00.312Z,95.53
2018-09-19T12:17:35.344Z,92.82
2018-09-19T12:19:06.624Z,93.40
2018-09-19T12:20:38.208Z,94.12
2018-09-19T12:22:09.791Z,92.57
2018-09-19T12:23:42.180Z,90.87
2018-09-19T12:25:13.260Z,93.01
2018-09-19T12:26:45.071Z,95.19
2018-09-19T12:28:16.124Z,96.36
2018-09-19T12:29:48.338Z,93.88
2018-09-19T12:31:19.289Z,94.17
2018-09-19T12:32:50.892Z,93.25
2018-09-19T12:34:22.456Z,91.25
2018-09-19T12:35:54.038Z,91.60
2018-09-19T12:38:57.713Z,91.79
2018-09-19T12:40:28.826Z,92.32
2018-09-19T12:42:00.374Z,92.72
2018-09-19T12:45:03.542Z,93.30
2018-09-19T12:46:35.132Z,92.96
2018-09-19T12:49:38.595Z,92.57
2018-09-19T12:52:41.743Z,89.61
2018-09-19T12:54:13.043Z,89.95
2018-09-19T12:55:44.630Z,89.80
2018-09-19T12:57:16.515Z,91.36
2018-09-19T13:00:19.383Z,92.28
2018-09-19T13:01:50.966Z,90.33
2018-09-19T13:03:22.547Z,89.12
2018-09-19T13:06:25.921Z,88.64
2018-09-19T13:07:57.399Z,88.78
2018-09-19T13:09:30.023Z,87.22
2018-09-19T13:11:00.554Z,86.98
2018-09-19T13:14:03.838Z,85.33
2018-09-19T13:15:35.220Z,86.60
2018-09-19T13:17:07.008Z,86.10
2018-09-19T13:18:38.605Z,86.39
2018-09-19T13:20:10.512Z,86.68
2018-09-19T13:21:41.572Z,88.15
2018-09-19T13:23:13.142Z,89.41
2018-09-19T13:24:44.729Z,87.08
2018-09-19T13:26:16.412Z,86.35
2018-09-19T13:29:19.542Z,84.82
2018-09-19T13:30:51.074Z,79.86
2018-09-19T13:32:22.954Z,81.04
2018-09-19T13:33:54.234Z,83.34
2018-09-19T13:36:57.707Z,86.10
2018-09-19T13:38:29.293Z,82.93
2018-09-19T13:41:32.482Z,81.81
2018-09-19T13:44:35.431Z,82.37
2018-09-19T13:46:07.229Z,81.18
2018-09-19T13:49:10.092Z,78.81
2018-09-19T13:50:41.672Z,81.63
2018-09-19T13:52:13.983Z,82.71
2018-09-19T13:53:44.834Z,83.53
2018-09-19T13:55:16.425Z,82.46
2018-09-19T13:58:19.895Z,82.06
2018-09-19T13:59:51.233Z,81.51
2018-09-19T14:01:23.363Z,78.69
2018-09-19T14:05:57.702Z,77.04
2018-09-19T14:07:29.298Z,79.47
2018-09-19T14:09:00.681Z,77.50
2018-09-19T14:10:32.273Z,77.17
2018-09-19T14:12:04.057Z,76.04
2018-09-19T14:13:35.435Z,76.40
2018-09-19T14:15:07.040Z,77.56
2018-09-19T14:16:38.683Z,76.40
2018-09-19T14:18:10.193Z,75.20
2018-09-19T14:19:41.846Z,74.19
2018-09-19T14:21:13.366Z,73.80
2018-09-19T14:22:44.953Z,72.25
2018-09-19T14:24:16.944Z,77.29
2018-09-19T14:28:52.436Z,73.61
2018-09-19T14:30:22.885Z,74.84
2018-09-19T14:31:54.532Z,77.10
2018-09-19T14:33:26.055Z,73.06
2018-09-19T14:34:57.694Z,73.55
2018-09-19T14:36:29.669Z,72.83
2018-09-19T14:38:00.812Z,74.32
2018-09-19T14:41:03.985Z,76.78
2018-09-19T14:42:35.720Z,76.10
2018-09-19T14:44:07.209Z,73.86
2018-09-19T14:45:38.740Z,78.20
2018-09-19T14:47:10.630Z,73.97
2018-09-19T14:48:41.983Z,72.51
2018-09-19T14:50:13.497Z,73.74
2018-09-19T14:51:45.098Z,75.78
2018-09-19T14:54:49.747Z,75.62
2018-09-19T14:56:19.840Z,73.45
2018-09-19T14:57:51.576Z,73.12
2018-09-19T14:59:23.233Z,71.28
2018-09-19T15:00:54.700Z,71.37
2018-09-19T15:02:26.719Z,71.70
2018-09-19T15:05:29.365Z,71.05
2018-09-19T15:07:00.950Z,70.43
2018-09-19T15:08:32.539Z,70.24
2018-09-19T15:10:04.328Z,68.19
2018-09-19T15:11:35.713Z,67.71
2018-09-19T15:14:38.890Z,68.42
2018-09-19T15:19:14.186Z,68.23
2018-09-19T15:20:45.534Z,68.38
2018-09-19T15:22:16.858Z,70.14
2018-09-19T15:25:20.010Z,68.84
2018-09-19T15:26:51.596Z,67.61
2018-09-19T15:28:23.249Z,66.96
2018-09-19T15:29:55.081Z,70.17
2018-09-19T15:31:26.563Z,71.76
2018-09-19T15:32:57.944Z,71.23
2018-09-19T15:34:29.808Z,71.33
2018-09-19T15:36:01.122Z,68.94
2018-09-19T15:37:32.806Z,65.39
2018-09-19T15:40:36.632Z,66.24
2018-09-19T15:42:07.459Z,66.47
2018-09-19T15:43:40.059Z,66.05
2018-09-19T15:45:10.630Z,65.00
2018-09-19T15:46:43.254Z,65.17
2018-09-19T15:48:14.784Z,64.75
2018-09-19T15:49:45.393Z,63.24
2018-09-19T15:51:17.104Z,64.97
2018-09-19T15:52:48.584Z,65.69
2018-09-19T15:54:20.154Z,65.20
2018-09-19T15:55:52.198Z,64.55
2018-09-19T15:57:23.576Z,64.97
2018-09-19T15:58:55.336Z,64.09
2018-09-19T16:00:26.813Z,61.25
2018-09-19T16:01:58.327Z,61.91
2018-09-19T16:03:29.683Z,60.89
2018-09-19T16:05:01.439Z,60.86
2018-09-19T16:06:33.220Z,59.39
2018-09-19T16:08:04.466Z,59.78
2018-09-19T16:09:36.093Z,63.48
2018-09-19T16:11:07.965Z,64.16
2018-09-19T16:12:39.446Z,61.82
2018-09-19T16:14:10.934Z,59.99
2018-09-19T16:15:42.401Z,61.46
2018-09-19T16:17:14.292Z,62.60
2018-09-19T16:18:45.576Z,61.99
2018-09-19T16:21:48.752Z,60.78
2018-09-19T16:23:20.349Z,59.67
2018-09-19T16:26:23.515Z,59.47
2018-09-19T16:27:55.156Z,57.52
2018-09-19T16:29:27.913Z,58.30
2018-09-19T16:32:30.188Z,57.77
2018-09-19T16:34:01.482Z,57.84
2018-09-19T16:35:33.146Z,58.27
2018-09-19T16:37:04.698Z,60.06
2018-09-19T16:38:36.247Z,59.74
2018-09-19T16:40:08.425Z,59.64
2018-09-19T16:41:39.931Z,59.18
2018-09-19T16:44:42.573Z,57.25
2018-09-19T16:46:14.484Z,59.77
2018-09-19T16:47:45.950Z,59.61
2018-09-19T16:49:17.339Z,60.78
2018-09-19T16:50:48.924Z,59.51
2018-09-19T16:52:20.597Z,58.16
2018-09-19T16:53:52.398Z,56.56
2018-09-19T16:56:55.580Z,57.95
2018-09-19T16:59:58.806Z,58.92
2018-09-19T17:01:30.087Z,58.17
2018-09-19T17:03:01.647Z,57.50
2018-09-19T17:04:33.203Z,53.82
2018-09-19T17:06:04.838Z,54.46
2018-09-19T17:07:36.491Z,55.08
2018-09-19T17:09:08.062Z,57.98
2018-09-19T17:10:39.939Z,55.84
2018-09-19T17:12:11.376Z,53.78
2018-09-19T17:15:14.331Z,55.55
2018-09-19T17:16:46.098Z,54.33
2018-09-19T17:18:17.483Z,53.62
2018-09-19T17:19:49.070Z,53.88
2018-09-19T17:21:20.962Z,54.54
2018-09-19T17:22:52.246Z,54.08
2018-09-19T17:24:23.832Z,53.96
2018-09-19T17:25:55.625Z,54.13
2018-09-19T17:27:27.213Z,54.49
2018-09-19T17:28:58.906Z,56.74
2018-09-19T17:32:02.106Z,59.64
2018-09-19T17:36:36.582Z,58.24
2018-09-19T17:38:08.370Z,58.34
2018-09-19T17:39:39.716Z,58.44
2018-09-19T17:42:43.008Z,58.38
2018-09-19T17:45:46.948Z,58.30
2018-09-19T17:47:18.051Z,55.52
2018-09-19T17:48:50.173Z,56.27
2018-09-19T17:50:20.819Z,56.47
2018-09-19T17:51:52.686Z,55.10
2018-09-19T17:53:24.292Z,57.95
2018-09-19T17:54:55.861Z,60.23
2018-09-19T17:56:27.376Z,61.47
2018-09-19T17:57:59.120Z,62.05
2018-09-19T18:01:01.878Z,61.96
2018-09-19T18:02:33.486Z,62.25
2018-09-19T18:04:05.078Z,62.63
2018-09-19T18:05:37.033Z,61.99
2018-09-19T18:07:10.182Z,62.02
2018-09-19T18:08:40.050Z,61.24
2018-09-19T18:10:11.877Z,56.99
2018-09-19T18:11:42.959Z,57.45
2018-09-19T18:13:14.566Z,56.45
2018-09-19T18:14:46.639Z,58.18
2018-09-19T18:16:17.961Z,59.35
2018-09-19T18:17:49.347Z,57.15
2018-09-19T18:19:21.170Z,53.77
2018-09-19T18:20:52.680Z,53.64
2018-09-19T18:22:24.779Z,53.72
2018-09-19T18:23:55.721Z,57.35
2018-09-19T18:25:27.236Z,57.46
2018-09-19T18:26:58.799Z,56.05
2018-09-19T18:31:33.741Z,52.79
2018-09-19T18:33:05.132Z,50.98
2018-09-19T18:34:36.777Z,49.75
2018-09-19T18:36:08.436Z,51.12
2018-09-19T18:37:39.911Z,52.34
2018-09-19T18:39:13.431Z,53.16
2018-09-19T18:40:43.232Z,52.51
2018-09-19T18:42:15.035Z,52.56
2018-09-19T18:43:47.182Z,51.61
2018-09-19T18:45:18.826Z,50.83
2018-09-19T18:46:49.687Z,50.63
2018-09-19T18:48:20.977Z,49.87
2018-09-19T18:51:24.283Z,49.87
2018-09-19T18:52:56.464Z,51.42
2018-09-19T18:54:27.380Z,53.09
2018-09-19T18:55:59.140Z,55.22
2018-09-19T18:57:31.016Z,55.97
2018-09-19T18:59:02.510Z,56.77
2018-09-19T19:02:05.339Z,53.27
2018-09-19T19:03:37.536Z,51.44
2018-09-19T19:06:40.039Z,51.07
2018-09-19T19:08:11.830Z,50.98
2018-09-19T19:11:15.257Z,50.39
2018-09-19T19:12:46.410Z,49.85
2018-09-19T19:14:18.358Z,50.02
2018-09-19T19:15:49.493Z,49.92
2018-09-19T19:17:21.248Z,49.38
2018-09-19T19:18:52.821Z,48.63
2018-09-19T19:20:24.313Z,49.65
2018-09-19T19:23:27.417Z,52.51
2018-09-19T19:24:59.082Z,55.13
2018-09-19T19:26:30.911Z,58.03
2018-09-19T19:29:33.884Z,62.21
2018-09-19T19:31:05.583Z,65.36
2018-09-19T19:32:37.250Z,66.21
2018-09-19T19:34:08.780Z,70.20
2018-09-19T19:35:40.400Z,72.99
2018-09-19T19:37:11.774Z,74.02
2018-09-19T19:38:43.520Z,74.71
2018-09-19T19:40:15.048Z,74.71
2018-09-19T19:43:18.136Z,74.71
2018-09-19T19:44:49.897Z,75.03
2018-09-19T19:46:21.177Z,73.83
2018-09-19T19:47:52.798Z,74.12
2018-09-19T19:49:24.883Z,74.48
2018-09-19T19:50:56.200Z,74.80
2018-09-19T19:53:59.566Z,75.15
2018-09-19T19:55:31.331Z,75.54
2018-09-19T19:57:02.247Z,75.05
2018-09-19T19:58:34.110Z,75.74
2018-09-19T20:00:05.381Z,75.93
2018-09-19T20:01:37.254Z,76.12
2018-09-19T20:03:08.928Z,77.15
2018-09-19T20:07:43.889Z,77.39
2018-09-19T20:09:14.973Z,76.61
2018-09-19T20:10:46.512Z,77.20
2018-09-19T20:12:18.062Z,77.68
2018-09-19T20:16:53.144Z,77.45
2018-09-19T20:18:24.397Z,78.17
2018-09-19T20:19:55.984Z,77.35
2018-09-19T20:21:28.071Z,78.52
2018-09-19T20:22:59.677Z,79.25
2018-09-19T20:24:30.892Z,79.55
2018-09-19T20:27:34.118Z,78.09
2018-09-19T20:29:05.427Z,78.38
2018-09-19T20:30:37.472Z,79.35
2018-09-19T20:33:40.124Z,79.99
2018-09-19T20:36:43.621Z,78.83
2018-09-19T20:38:15.121Z,78.92
2018-09-19T20:39:46.651Z,79.51
2018-09-19T20:41:18.997Z,78.92
2018-09-19T20:42:49.703Z,80.87
2018-09-19T20:45:52.975Z,80.93
2018-09-19T20:47:24.336Z,81.31
2018-09-19T20:48:55.937Z,80.73
2018-09-19T20:51:59.075Z,80.25
2018-09-19T20:53:30.696Z,79.37
2018-09-19T20:56:33.871Z,80.25
2018-09-19T20:58:05.410Z,79.86
2018-09-19T20:59:36.973Z,78.99
2018-09-19T21:01:08.544Z,79.96
2018-09-19T21:02:40.978Z,80.25
2018-09-19T21:04:11.738Z,80.93
2018-09-19T21:05:43.540Z,81.27
2018-09-19T21:07:14.875Z,81.37
2018-09-19T21:08:46.956Z,81.37
2018-09-19T21:10:18.041Z,81.37
2018-09-19T21:11:49.612Z,82.34
2018-09-19T21:13:21.171Z,81.57
2018-09-19T21:16:24.951Z,82.01
2018-09-19T21:17:55.903Z,81.72
2018-09-19T21:19:27.485Z,80.65
2018-09-19T21:22:30.750Z,81.43
2018-09-19T21:24:02.216Z,82.59
2018-09-19T21:25:33.793Z,80.65
2018-09-19T21:27:05.371Z,81.33
2018-09-19T21:30:08.527Z,81.04
2018-09-19T21:31:40.120Z,81.72
2018-09-19T21:33:11.684Z,82.10
2018-09-19T21:34:43.261Z,83.07
2018-09-19T21:36:14.838Z,83.27
2018-09-19T21:37:46.414Z,83.75
2018-09-19T21:39:17.993Z,85.07
2018-09-19T21:40:49.629Z,84.88
2018-09-19T21:42:21.338Z,86.33
2018-09-19T21:43:52.870Z,86.72
2018-09-19T21:45:24.301Z,87.10
2018-09-19T21:46:55.879Z,88.56
2018-09-19T21:48:27.477Z,89.43
2018-09-19T21:49:59.035Z,90.36
2018-09-19T21:51:30.624Z,91.71
2018-09-19T21:53:02.207Z,92.00
2018-09-19T21:54:33.767Z,94.04
2018-09-19T21:56:05.342Z,95.29